Latest Weather Observations for Beaudesert AWS

IDQ60801

Issued at 9:32 pm EST Wednesday 1 July 2015 (issued every 30 minutes, with the page automatically refreshed every 10 minutes)

About weather observations | Map of weather stations | Latest weather observations for QLD | Other Formats
Station Details ID: 040983 Name: BEAUDESERT DRUMLEY STREET Lat: -27.97 Lon: 152.99 Height: 47.81 m
Data from the previous 72 hours. | See also: Recent months at Beaudesert AWS
Date/Time
EST
Temp
°C
App
Temp
°C
Dew
Point
Rel
Hum
%
Delta-T
°C
Wind Press
QNH
hPa
Press
MSL
hPa
Rain
since 9 am
mm
Dir
 
Spd
km/h
Gust
km/h
Spd
kts
Gust
kts
01/09:30pm 12.7 12.8 11.6 93 0.6 E 2 4 1 2 1022.5 1022.6 1.2
01/09:00pm 12.4 12.4 11.1 92 0.7 SE 2 4 1 2 1022.6 1022.7 1.2
01/08:30pm 12.9 13.4 11.5 91 0.7 CALM 0 0 0 0 1022.2 1022.3 1.2
01/08:00pm 13.2 13.6 11.1 87 1.1 CALM 0 0 0 0 1022.0 1022.1 1.2
01/07:30pm 14.7 15.4 12.2 85 1.4 CALM 0 0 0 0 1021.8 1021.9 1.2
01/07:00pm 15.4 16.2 12.5 83 1.6 CALM 0 0 0 0 1021.7 1021.8 1.2
01/06:30pm 16.0 17.0 13.1 83 1.6 CALM 0 0 0 0 1021.2 1021.2 1.2
01/06:00pm 15.9 16.7 12.6 81 1.8 CALM 0 4 0 2 1020.8 1020.8 1.2
01/05:30pm 17.3 18.1 13.6 79 2.1 NNW 2 6 1 3 1020.4 1020.4 1.2
01/05:00pm 18.8 19.3 13.9 73 2.8 ENE 4 7 2 4 1020.4 1020.4 1.2
01/04:30pm 19.9 20.4 12.9 64 4.0 NNE 2 4 1 2 1020.1 1020.1 1.2
01/04:00pm 22.4 23.4 13.2 56 5.3 CALM 0 2 0 1 1020.1 1020.1 1.2
01/03:30pm 21.7 23.2 14.6 64 4.2 CALM 0 4 0 2 1020.1 1020.1 1.2
01/03:00pm 19.9 20.9 15.3 75 2.7 NE 4 6 2 3 1020.4 1020.4 1.2
01/02:30pm 18.7 19.6 15.0 79 2.2 ENE 4 6 2 3 1020.5 1020.5 1.2
01/02:00pm 20.4 21.3 14.1 67 3.6 SSE 2 4 1 2 1020.8 1020.8 0.6
01/01:30pm 21.6 21.7 11.6 53 5.6 NE 2 6 1 3 1020.9 1020.9 0.0
01/01:00pm 21.9 21.5 12.5 55 5.3 NW 6 13 3 7 1021.4 1021.4 0.0
01/12:30pm 21.2 21.4 13.1 60 4.6 WSW 4 11 2 6 1021.9 1022.0 0.0
01/12:00pm 20.8 21.2 12.5 59 4.7 WNW 2 6 1 3 1022.6 1022.7 0.0
01/11:30am 20.0 20.2 13.2 65 3.9 NW 4 7 2 4 1023.4 1023.4 0.0
01/11:00am 19.4 19.4 13.6 69 3.3 SW 6 11 3 6 1024.0 1024.0 0.0
01/10:30am 17.5 18.6 13.4 77 2.3 CALM 0 0 0 0 1024.4 1024.4 0.0
01/10:00am 16.5 17.1 13.2 81 1.8 NNW 2 4 1 2 1024.8 1024.8 0.0
01/09:30am 15.3 15.5 13.0 86 1.3 SW 4 6 2 3 1024.9 1024.8 0.0
01/09:00am 14.7 15.0 12.2 85 1.4 SW 2 4 1 2 1024.7 1024.6 0.2
01/08:30am 13.3 13.1 11.7 90 0.9 SSW 4 6 2 3 1024.7 1024.6 0.2
01/08:00am 12.4 12.5 11.5 94 0.5 SW 2 6 1 3 1024.7 1024.6 0.2
01/07:30am 11.6 11.5 10.8 95 0.4 NE 2 4 1 2 1024.4 1024.3 0.2
01/07:00am 10.0 9.8 9.1 94 0.4 CALM 0 0 0 0 1024.2 1024.1 0.2
01/06:30am 9.5 9.2 8.6 94 0.4 CALM 0 0 0 0 1024.0 1023.9 0.2
01/06:00am 10.1 10.0 9.3 95 0.4 CALM 0 0 0 0 1023.6 1023.5 0.2
01/05:30am 9.6 9.3 8.5 93 0.5 CALM 0 0 0 0 1023.5 1023.4 0.2
01/05:00am 10.6 10.6 9.8 95 0.4 CALM 0 0 0 0 1023.3 1023.2 0.2
01/04:30am 10.8 10.5 10.0 95 0.4 E 2 4 1 2 1023.3 1023.2 0.2
01/04:00am 10.5 10.1 9.6 94 0.4 ESE 2 4 1 2 1023.6 1023.5 0.2
01/03:30am 10.6 10.2 9.7 94 0.5 E 2 4 1 2 1023.7 1023.6 0.2
01/03:00am 10.5 10.0 9.4 93 0.5 SW 2 4 1 2 1023.9 1023.8 0.2
01/02:30am 11.2 10.6 10.4 95 0.4 ESE 4 6 2 3 1024.3 1024.2 0.2
01/02:00am 11.0 11.1 10.1 94 0.5 CALM 0 0 0 0 1024.8 1024.7 0.2
01/01:30am 11.0 11.1 10.1 94 0.5 CALM 0 0 0 0 1024.8 1024.7 0.2
01/01:00am 10.7 10.6 9.6 93 0.6 CALM 0 0 0 0 1024.9 1024.8 0.2
01/12:30am 11.1 10.8 10.2 94 0.5 SSE 2 4 1 2 1025.1 1025.0 0.2
01/12:00am 11.2 11.0 10.3 94 0.5 SE 2 4 1 2 1025.2 1025.1 0.2
 
Date/Time
EST
Temp
°C
App
Temp
°C
Dew
Point
Rel
Hum
%
Delta-T
°C
Wind Press
QNH
hPa
Press
MSL
hPa
Rain
since 9 am
mm
Dir
 
Spd
km/h
Gust
km/h
Spd
kts
Gust
kts
30/11:30pm 10.9 10.9 9.7 92 0.6 CALM 0 0 0 0 1025.4 1025.3 0.2
30/11:00pm 11.9 11.9 11.0 94 0.5 ESE 2 4 1 2 1025.4 1025.3 0.2
30/10:30pm 11.9 12.1 10.6 92 0.7 CALM 0 2 0 1 1025.5 1025.4 0.2
30/10:00pm 12.6 13.0 11.3 92 0.7 CALM 0 0 0 0 1025.6 1025.6 0.2
30/09:30pm 12.2 12.5 10.8 91 0.7 CALM 0 0 0 0 1025.8 1025.8 0.2
30/09:00pm 13.0 13.3 10.9 87 1.1 CALM 0 0 0 0 1025.8 1025.8 0.2
30/08:30pm 14.1 14.3 12.0 87 1.1 ENE 2 6 1 3 1025.6 1025.6 0.2
30/08:00pm 13.8 14.5 12.2 90 0.9 CALM 0 4 0 2 1025.6 1025.6 0.2
30/07:30pm 13.6 14.0 11.3 86 1.2 CALM 0 0 0 0 1025.3 1025.2 0.2
30/07:00pm 14.5 15.1 11.8 84 1.4 CALM 0 0 0 0 1025.0 1024.9 0.2
30/06:30pm 15.0 15.4 11.4 79 1.9 CALM 0 0 0 0 1024.7 1024.6 0.2
30/06:00pm 16.6 16.1 12.2 75 2.4 NE 6 7 3 4 1024.3 1024.2 0.2
30/05:30pm 17.1 17.0 12.2 73 2.7 ENE 4 6 2 3 1024.1 1024.0 0.2
30/05:00pm 18.9 18.9 12.4 66 3.6 NE 4 6 2 3 1024.1 1024.0 0.2
30/04:30pm 20.5 20.2 12.7 61 4.4 NE 6 7 3 4 1024.2 1024.1 0.2
30/04:00pm 20.3 19.9 12.5 61 4.4 NNE 6 9 3 5 1024.1 1024.0 0.2
30/03:30pm 20.9 20.3 11.8 56 5.1 NNE 6 9 3 5 1023.9 1023.8 0.2
30/03:00pm 21.2 20.4 11.8 55 5.2 ENE 7 11 4 6 1023.9 1023.8 0.2
30/02:30pm 22.7 22.0 12.0 50 6.0 NE 7 13 4 7 1023.7 1023.6 0.2
30/02:00pm 21.8 20.6 11.5 52 5.7 NE 9 13 5 7 1024.1 1024.0 0.2
30/01:30pm 22.7 22.1 11.7 49 6.2 W 6 11 3 6 1024.3 1024.2 0.2
30/01:00pm 23.0 22.7 11.4 48 6.5 N 4 9 2 5 1024.8 1024.7 0.2
30/12:30pm 22.6 23.1 11.7 50 6.1 CALM 0 4 0 2 1025.4 1025.3 0.2
30/12:00pm 20.9 20.0 10.7 52 5.6 SE 6 11 3 6 1025.7 1025.7 0.2
30/11:30am 21.2 20.8 12.3 57 5.0 SE 6 11 3 6 1026.2 1026.2 0.2
30/11:00am 21.4 22.4 13.1 59 4.7 CALM 0 2 0 1 1026.8 1026.8 0.0
30/10:30am 19.8 20.0 13.0 65 3.9 SSW 4 7 2 4 1027.4 1027.4 0.0
30/10:00am 18.5 18.5 13.6 73 2.8 SSW 6 11 3 6 1028.3 1028.3 0.0
30/09:30am 17.5 17.0 13.8 79 2.1 WSW 9 13 5 7 1028.4 1028.4 0.0
30/09:00am 15.6 16.3 13.3 86 1.3 SSW 2 6 1 3 1028.1 1028.1 1.4
30/08:30am 14.3 14.8 12.9 91 0.8 ESE 2 4 1 2 1028.3 1028.3 1.4
30/08:00am 12.3 12.8 11.5 95 0.4 CALM 0 4 0 2 1028.2 1028.2 1.4
30/07:30am 11.4 11.6 10.6 95 0.4 CALM 0 4 0 2 1028.1 1028.1 1.4
30/07:00am 10.4 10.3 9.6 95 0.4 CALM 0 4 0 2 1027.8 1027.8 1.4
30/06:30am 9.9 9.7 9.0 94 0.4 CALM 0 0 0 0 1027.9 1027.9 1.4
30/06:00am 10.9 11.0 10.0 94 0.5 CALM 0 0 0 0 1027.6 1027.6 1.4
30/05:30am 11.4 11.6 10.6 95 0.4 CALM 0 0 0 0 1027.5 1027.5 1.4
30/05:00am 11.5 11.7 10.7 95 0.4 CALM 0 0 0 0 1027.6 1027.6 1.4
30/04:30am 11.6 11.9 10.8 95 0.4 CALM 0 4 0 2 1027.6 1027.6 1.4
30/04:00am 11.1 11.2 10.2 94 0.5 CALM 0 0 0 0 1027.7 1027.7 1.4
30/03:30am 11.2 11.3 10.1 93 0.6 CALM 0 0 0 0 1027.9 1027.9 1.4
30/03:00am 11.8 12.0 10.7 93 0.6 CALM 0 0 0 0 1028.1 1028.1 1.4
30/02:30am 12.1 12.4 11.0 93 0.6 CALM 0 0 0 0 1028.0 1028.0 1.4
30/02:00am 12.6 13.0 11.3 92 0.7 CALM 0 0 0 0 1028.2 1028.2 1.4
30/01:30am 13.6 14.4 12.5 93 0.6 CALM 0 0 0 0 1028.3 1028.3 1.4
30/01:00am 13.4 14.1 12.1 92 0.7 CALM 0 0 0 0 1028.7 1028.7 1.4
30/12:30am 14.1 15.0 12.8 92 0.7 CALM 0 0 0 0 1028.6 1028.6 1.4
30/12:00am 14.4 15.4 13.1 92 0.7 CALM 0 0 0 0 1028.7 1028.7 1.4
 
Date/Time
EST
Temp
°C
App
Temp
°C
Dew
Point
Rel
Hum
%
Delta-T
°C
Wind Press
QNH
hPa
Press
MSL
hPa
Rain
since 9 am
mm
Dir
 
Spd
km/h
Gust
km/h
Spd
kts
Gust
kts
29/11:30pm 14.6 15.6 13.3 92 0.7 CALM 0 0 0 0 1029.0 1029.0 1.4
29/11:00pm 14.7 15.8 13.4 92 0.7 CALM 0 0 0 0 1029.4 1029.4 1.4
29/10:30pm 14.9 16.0 13.4 91 0.8 CALM 0 0 0 0 1029.5 1029.5 1.4
29/10:00pm 15.3 16.5 13.8 91 0.8 CALM 0 0 0 0 1029.8 1029.8 1.4
29/09:30pm 15.7 17.0 14.1 90 0.9 CALM 0 0 0 0 1029.7 1029.7 1.4
29/09:00pm 15.8 16.5 14.5 92 0.7 WNW 4 6 2 3 1029.8 1029.8 1.4
29/08:30pm 15.6 16.9 14.1 91 0.9 CALM 0 0 0 0 1029.8 1029.8 1.4
29/08:00pm 15.7 17.0 14.2 91 0.8 CALM 0 0 0 0 1029.7 1029.7 1.4
29/07:30pm 15.9 17.3 14.3 90 0.9 CALM 0 0 0 0 1029.6 1029.6 1.4
29/07:00pm 16.1 17.5 14.5 90 0.9 CALM 0 0 0 0 1029.3 1029.3 1.4
29/06:30pm 16.0 17.4 14.5 91 0.9 CALM 0 0 0 0 1029.0 1029.0 1.4
29/06:00pm 16.0 17.4 14.5 91 0.9 CALM 0 0 0 0 1028.6 1028.6 1.4
29/05:30pm 15.8 17.1 14.0 89 1.0 CALM 0 2 0 1 1028.1 1028.1 1.4
29/05:00pm 16.3 17.3 14.3 88 1.1 SSW 2 4 1 2 1028.0 1028.0 1.4
29/04:30pm 17.0 17.3 14.6 86 1.4 SW 6 7 3 4 1028.1 1028.1 1.4
29/04:00pm 17.8 19.1 15.1 84 1.6 SE 2 4 1 2 1028.3 1028.3 1.4
29/03:30pm 17.4 18.2 14.7 84 1.6 SSW 4 6 2 3 1028.5 1028.5 1.4
29/03:00pm 17.5 18.4 15.0 85 1.4 WSW 4 7 2 4 1028.8 1028.8 1.4
29/02:30pm 17.6 18.4 14.9 84 1.6 W 4 6 2 3 1029.1 1029.1 1.4
29/02:00pm 17.2 18.3 14.7 85 1.4 WNW 2 4 1 2 1029.0 1029.0 1.4
29/01:30pm 16.8 17.3 15.0 89 1.0 SW 6 9 3 5 1029.3 1029.3 1.4
29/01:00pm 17.3 17.2 14.9 86 1.4 SW 9 13 5 7 1029.4 1029.4 1.2
29/12:30pm 17.7 18.6 15.0 84 1.6 SW 4 7 2 4 1029.5 1029.5 1.2
29/12:00pm 17.3 18.7 15.3 88 1.2 SSE 2 4 1 2 1029.9 1029.9 1.2
29/11:30am 16.8 17.2 14.8 88 1.2 NE 6 9 3 5 1030.8 1030.8 0.4
29/11:00am 18.0 18.5 14.1 78 2.2 ENE 4 6 2 3 1031.1 1031.1 0.0
29/10:30am 18.4 19.5 14.5 78 2.3 E 2 4 1 2 1031.3 1031.3 0.0
29/10:00am 17.1 18.4 14.2 83 1.6 CALM 0 0 0 0 1031.3 1031.3 0.0
29/09:30am 15.8 17.0 13.8 88 1.1 CALM 0 0 0 0 1031.7 1031.7 0.0
29/09:00am 14.8 15.8 13.3 91 0.8 CALM 0 0 0 0 1031.6 1031.6 0.0
29/08:30am 13.8 14.6 12.5 92 0.7 CALM 0 0 0 0 1031.4 1031.4 0.0
29/08:00am 13.1 13.7 12.0 93 0.6 CALM 0 0 0 0 1031.3 1031.3 0.0
29/07:30am 12.6 13.2 11.8 95 0.4 CALM 0 0 0 0 1031.0 1031.0 0.0
29/07:00am 11.9 12.3 11.1 95 0.4 CALM 0 0 0 0 1030.8 1030.8 0.0
29/06:30am 11.6 11.9 10.8 95 0.4 CALM 0 0 0 0 1030.4 1030.4 0.0
29/06:00am 11.1 11.2 10.3 95 0.4 CALM 0 0 0 0 1030.2 1030.2 0.0
29/05:30am 10.7 9.6 9.8 94 0.5 SSE 6 7 3 4 1029.8 1029.8 0.0
29/05:00am 11.2 11.4 10.4 95 0.4 CALM 0 4 0 2 1029.5 1029.5 0.0
29/04:30am 11.2 11.0 10.4 95 0.4 ENE 2 4 1 2 1029.5 1029.5 0.0
29/04:00am 10.8 10.8 9.9 94 0.5 CALM 0 0 0 0 1029.5 1029.5 0.0
29/03:30am 10.9 10.6 10.0 94 0.5 SSE 2 6 1 3 1029.7 1029.7 0.0
29/03:00am 11.3 11.0 10.2 93 0.6 S 2 6 1 3 1029.9 1029.9 0.0
29/02:30am 11.8 11.7 10.7 93 0.6 SSW 2 4 1 2 1030.1 1030.1 0.0
29/02:00am 12.2 12.5 10.9 92 0.7 CALM 0 0 0 0 1030.0 1030.0 0.0
29/01:30am 12.6 13.0 11.3 92 0.7 CALM 0 0 0 0 1030.0 1030.0 0.0
29/01:00am 13.0 13.5 11.7 92 0.7 CALM 0 0 0 0 1030.1 1030.1 0.0
29/12:30am 12.9 13.0 11.5 91 0.7 WSW 2 4 1 2 1030.4 1030.4 0.0
29/12:00am 13.1 13.6 11.7 91 0.7 CALM 0 4 0 2 1030.4 1030.4 0.0
 
Date/Time
EST
Temp
°C
App
Temp
°C
Dew
Point
Rel
Hum
%
Delta-T
°C
Wind Press
QNH
hPa
Press
MSL
hPa
Rain
since 9 am
mm
Dir
 
Spd
km/h
Gust
km/h
Spd
kts
Gust
kts
28/11:30pm 13.4 14.1 12.1 92 0.7 CALM 0 0 0 0 1030.6 1030.6 0.0
28/11:00pm 12.9 12.6 11.6 92 0.7 SSE 4 4 2 2 1030.8 1030.8 0.0
28/10:30pm 12.8 13.2 11.2 90 0.8 CALM 0 0 0 0 1030.9 1030.9 0.0
28/10:00pm 13.2 13.6 11.3 88 1.0 CALM 0 0 0 0 1030.8 1030.8 0.0

Other Formats:

Comma delimited format used in spreadsheet applications
http://www.bom.gov.au/fwo/IDQ60801/IDQ60801.95575.axf

JavaScript Object Notation format (JSON) in row-major order
http://www.bom.gov.au/fwo/IDQ60801/IDQ60801.95575.json